createdAt,value
2024-03-05T00:00:47.248Z,23.57
2024-03-05T00:01:47.248Z,23.58
2024-03-05T00:02:47.286Z,23.58
2024-03-05T00:03:47.354Z,23.55
2024-03-05T00:04:47.467Z,23.58
2024-03-05T00:05:47.477Z,23.57
2024-03-05T00:06:47.574Z,23.58
2024-03-05T00:07:47.628Z,23.57
2024-03-05T00:08:47.662Z,23.58
2024-03-05T00:09:47.725Z,23.54
2024-03-05T00:10:47.922Z,23.57
2024-03-05T00:11:47.965Z,23.58
2024-03-05T00:12:47.960Z,23.55
2024-03-05T00:13:48.034Z,23.55
2024-03-05T00:14:48.162Z,23.55
2024-03-05T00:15:48.135Z,23.55
2024-03-05T00:16:48.227Z,23.58
2024-03-05T00:17:48.298Z,23.55
2024-03-05T00:18:48.312Z,23.55
2024-03-05T00:19:48.462Z,23.55
2024-03-05T00:20:48.485Z,23.54
2024-03-05T00:21:48.564Z,23.54
2024-03-05T00:22:48.697Z,23.55
2024-03-05T00:23:48.669Z,23.54
2024-03-05T00:24:48.729Z,23.54
2024-03-05T00:25:48.863Z,23.52
2024-03-05T00:26:48.899Z,23.54
2024-03-05T00:27:48.940Z,23.55
2024-03-05T00:28:49.022Z,23.52
2024-03-05T00:29:49.052Z,23.54
2024-03-05T00:30:49.142Z,23.54
2024-03-05T00:31:49.644Z,23.52
2024-03-05T00:32:49.307Z,23.52
2024-03-05T00:33:49.297Z,23.54
2024-03-05T00:34:49.477Z,23.51
2024-03-05T00:35:49.455Z,23.51
2024-03-05T00:36:49.519Z,23.49
2024-03-05T00:37:49.615Z,23.49
2024-03-05T00:38:49.631Z,23.51
2024-03-05T00:39:49.709Z,23.52
2024-03-05T00:40:49.846Z,23.51
2024-03-05T00:41:49.835Z,23.48
2024-03-05T00:42:49.924Z,23.49
2024-03-05T00:43:50.024Z,23.49
2024-03-05T00:44:50.022Z,23.48
2024-03-05T00:45:50.150Z,23.45
2024-03-05T00:46:50.494Z,23.48
2024-03-05T00:47:50.297Z,23.45
2024-03-05T00:48:50.281Z,23.48
2024-03-05T00:49:50.384Z,23.45
2024-03-05T00:50:50.461Z,23.48
2024-03-05T00:51:50.540Z,23.47
2024-03-05T00:52:50.604Z,23.47
2024-03-05T00:53:50.668Z,23.48
2024-03-05T00:54:50.734Z,23.47
2024-03-05T00:55:50.872Z,23.48
2024-03-05T00:56:50.913Z,23.48
2024-03-05T00:57:50.970Z,23.48
2024-03-05T00:58:51.084Z,23.48
2024-03-05T00:59:51.074Z,23.49
2024-03-05T01:00:51.153Z,23.49
2024-03-05T01:01:51.275Z,23.51
2024-03-05T01:02:51.305Z,23.51
2024-03-05T01:03:51.384Z,23.48
2024-03-05T01:04:51.656Z,23.49
2024-03-05T01:05:51.598Z,23.51
2024-03-05T01:06:51.597Z,23.48
2024-03-05T01:07:51.729Z,23.48
2024-03-05T01:08:51.711Z,23.49
2024-03-05T01:09:51.757Z,23.48
2024-03-05T01:10:51.888Z,23.48
2024-03-05T01:11:51.928Z,23.51
2024-03-05T01:12:51.993Z,23.49
2024-03-05T01:13:52.151Z,23.48
2024-03-05T01:14:52.124Z,23.47
2024-03-05T01:15:52.182Z,23.48
2024-03-05T01:16:52.297Z,23.49
2024-03-05T01:17:52.378Z,23.48
2024-03-05T01:18:52.458Z,23.45
2024-03-05T01:19:52.498Z,23.47
2024-03-05T01:20:52.554Z,23.45
2024-03-05T01:21:52.596Z,23.47
2024-03-05T01:22:52.756Z,23.47
2024-03-05T01:23:52.728Z,23.49
2024-03-05T01:24:52.797Z,23.47
2024-03-05T01:25:52.994Z,23.48
2024-03-05T01:26:52.926Z,23.49
2024-03-05T01:27:53.009Z,23.51
2024-03-05T01:28:53.132Z,23.51
2024-03-05T01:29:53.190Z,23.49
2024-03-05T01:30:53.214Z,23.49
2024-03-05T01:31:53.388Z,23.48
2024-03-05T01:32:53.383Z,23.47
2024-03-05T01:33:53.437Z,23.49
2024-03-05T01:34:53.541Z,23.49
2024-03-05T01:35:53.596Z,23.49
2024-03-05T01:36:53.603Z,23.47
2024-03-05T01:37:53.714Z,23.48
2024-03-05T01:38:53.762Z,23.49
2024-03-05T01:39:53.850Z,23.48
2024-03-05T01:40:53.992Z,23.49
2024-03-05T01:41:53.983Z,23.49
2024-03-05T01:42:54.048Z,23.47
2024-03-05T01:43:54.118Z,23.48
2024-03-05T01:44:54.192Z,23.48
2024-03-05T01:45:54.275Z,23.45
2024-03-05T01:46:54.431Z,23.45
2024-03-05T01:47:54.410Z,23.47
2024-03-05T01:48:54.477Z,23.45
2024-03-05T01:49:54.617Z,23.47
2024-03-05T01:50:54.626Z,23.45
2024-03-05T01:51:54.727Z,23.47
2024-03-05T01:52:54.894Z,23.45
2024-03-05T01:53:54.813Z,23.45
2024-03-05T01:54:56.740Z,23.45
2024-03-05T01:55:55.066Z,23.44
2024-03-05T01:56:55.096Z,23.44
2024-03-05T01:57:55.133Z,23.45
2024-03-05T01:58:55.203Z,23.47
2024-03-05T01:59:55.298Z,23.44
2024-03-05T02:00:55.412Z,23.44
2024-03-05T02:01:55.463Z,23.44
2024-03-05T02:02:55.523Z,23.45
2024-03-05T02:03:55.574Z,23.47
2024-03-05T02:04:55.710Z,23.42
2024-03-05T02:05:55.686Z,23.44
2024-03-05T02:06:55.754Z,23.42
2024-03-05T02:07:55.976Z,23.42
2024-03-05T02:08:55.896Z,23.42
2024-03-05T02:09:55.982Z,23.40
2024-03-05T02:10:56.144Z,23.41
2024-03-05T02:11:59.514Z,23.41
2024-03-05T02:12:57.132Z,23.41
2024-03-05T02:13:56.151Z,23.41
2024-03-05T02:14:56.126Z,23.44
2024-03-05T02:15:56.115Z,23.42
2024-03-05T02:16:56.226Z,23.44
2024-03-05T02:17:56.214Z,23.42
2024-03-05T02:18:56.106Z,23.42
2024-03-05T02:19:56.226Z,23.44
2024-03-05T02:20:56.240Z,23.41
2024-03-05T02:21:56.295Z,23.42
2024-03-05T02:22:56.468Z,23.44
2024-03-05T02:23:56.466Z,23.44
2024-03-05T02:24:56.535Z,23.42
2024-03-05T02:25:56.669Z,23.42
2024-03-05T02:26:56.682Z,23.42
2024-03-05T02:27:56.737Z,23.44
2024-03-05T02:28:56.833Z,23.44
2024-03-05T02:29:56.898Z,23.44
2024-03-05T02:30:56.963Z,23.45
2024-03-05T02:31:57.090Z,23.42
2024-03-05T02:32:57.124Z,23.44
2024-03-05T02:33:57.185Z,23.47
2024-03-05T02:34:57.277Z,23.45
2024-03-05T02:35:57.285Z,23.47
2024-03-05T02:36:57.384Z,23.44
2024-03-05T02:37:57.486Z,23.44
2024-03-05T02:38:57.504Z,23.42
2024-03-05T02:39:57.561Z,23.44
2024-03-05T02:40:57.730Z,23.42
2024-03-05T02:41:57.712Z,23.47
2024-03-05T02:42:57.766Z,23.42
2024-03-05T02:43:57.894Z,23.45
2024-03-05T02:44:57.884Z,23.42
2024-03-05T02:45:57.946Z,23.41
2024-03-05T02:46:58.009Z,23.42
2024-03-05T02:47:58.104Z,23.40
2024-03-05T02:48:58.124Z,23.41
2024-03-05T02:49:58.243Z,23.41
2024-03-05T02:50:58.261Z,23.44
2024-03-05T02:51:58.362Z,23.42
2024-03-05T02:52:58.513Z,23.41
2024-03-05T02:53:58.488Z,23.41
2024-03-05T02:54:58.533Z,23.42
2024-03-05T02:55:58.752Z,23.42
2024-03-05T02:56:58.687Z,23.42
2024-03-05T02:57:58.770Z,23.41
2024-03-05T02:58:58.869Z,23.44
2024-03-05T02:59:58.915Z,23.41
2024-03-05T03:00:59.026Z,23.42
2024-03-05T03:01:59.025Z,23.42
2024-03-05T03:02:59.122Z,23.41
2024-03-05T03:03:59.196Z,23.42
2024-03-05T03:04:59.310Z,23.41
2024-03-05T03:05:59.346Z,23.41
2024-03-05T03:06:59.402Z,23.40
2024-03-05T03:07:59.549Z,23.42
2024-03-05T03:08:59.558Z,23.42
2024-03-05T03:09:59.612Z,23.41
2024-03-05T03:10:59.796Z,23.41
2024-03-05T03:11:59.851Z,23.41
2024-03-05T03:12:59.864Z,23.40
2024-03-05T03:13:59.908Z,23.40
2024-03-05T03:15:00.008Z,23.42
2024-03-05T03:16:00.039Z,23.40
2024-03-05T03:17:00.142Z,23.40
2024-03-05T03:18:00.261Z,23.40
2024-03-05T03:19:00.260Z,23.40
2024-03-05T03:20:00.382Z,23.41
2024-03-05T03:21:00.394Z,23.41
2024-03-05T03:22:00.492Z,23.41
2024-03-05T03:23:00.613Z,23.40
2024-03-05T03:24:00.628Z,23.38
2024-03-05T03:25:00.669Z,23.37
2024-03-05T03:26:00.742Z,23.37
2024-03-05T03:27:00.878Z,23.37
2024-03-05T03:28:00.883Z,23.37
2024-03-05T03:29:00.965Z,23.35
2024-03-05T03:30:01.003Z,23.34
2024-03-05T03:31:01.076Z,23.32
2024-03-05T03:32:01.151Z,23.32
2024-03-05T03:33:01.218Z,23.34
2024-03-05T03:34:01.225Z,23.31
2024-03-05T03:35:01.348Z,23.34
2024-03-05T03:36:01.350Z,23.32
2024-03-05T03:37:01.460Z,23.34
2024-03-05T03:38:01.485Z,23.34
2024-03-05T03:39:01.512Z,23.31
2024-03-05T03:40:01.589Z,23.32
2024-03-05T03:41:01.672Z,23.34
2024-03-05T03:42:01.714Z,23.34
2024-03-05T03:43:01.764Z,23.32
2024-03-05T03:44:01.800Z,23.34
2024-03-05T03:45:01.846Z,23.31
2024-03-05T03:46:01.924Z,23.32
2024-03-05T03:47:01.975Z,23.31
2024-03-05T03:48:02.075Z,23.30
2024-03-05T03:49:02.015Z,23.32
2024-03-05T03:50:02.126Z,23.30
2024-03-05T03:51:02.113Z,23.28
2024-03-05T03:52:02.119Z,23.27
2024-03-05T03:53:02.198Z,23.28
2024-03-05T03:54:02.176Z,23.28
2024-03-05T03:55:02.215Z,23.27
2024-03-05T03:56:02.253Z,23.30
2024-03-05T03:57:02.273Z,23.28
2024-03-05T03:58:02.323Z,23.28
2024-03-05T03:59:02.383Z,23.27
2024-03-05T04:00:02.393Z,23.27
2024-03-05T04:01:02.440Z,23.28
2024-03-05T04:02:02.567Z,23.30
2024-03-05T04:03:02.528Z,23.28
2024-03-05T04:04:02.557Z,23.27
2024-03-05T04:05:02.637Z,23.28
2024-03-05T04:06:02.623Z,23.30
2024-03-05T04:07:02.653Z,23.31
2024-03-05T04:08:04.872Z,23.30
2024-03-05T04:09:02.886Z,23.30
2024-03-05T04:10:02.988Z,23.30
2024-03-05T04:11:03.150Z,23.30
2024-03-05T04:12:03.085Z,23.31
2024-03-05T04:13:03.155Z,23.31
2024-03-05T04:14:04.615Z,23.28
2024-03-05T04:15:03.247Z,23.31
2024-03-05T04:16:03.274Z,23.30
2024-03-05T04:17:03.357Z,23.30
2024-03-05T04:18:03.475Z,23.30
2024-03-05T04:19:03.464Z,23.30
2024-03-05T04:20:03.575Z,23.28
2024-03-05T04:21:03.536Z,23.28
2024-03-05T04:22:03.610Z,23.27
2024-03-05T04:23:03.722Z,23.27
2024-03-05T04:24:03.687Z,23.27
2024-03-05T04:25:03.723Z,23.25
2024-03-05T04:26:03.750Z,23.30
2024-03-05T04:27:03.772Z,23.27
2024-03-05T04:28:03.796Z,23.25
2024-03-05T04:29:03.935Z,23.25
2024-03-05T04:30:03.848Z,23.28
2024-03-05T04:31:03.963Z,23.25
2024-03-05T04:32:03.972Z,23.24
2024-03-05T04:33:04.012Z,23.25
2024-03-05T04:34:03.976Z,23.23
2024-03-05T04:35:04.050Z,23.21
2024-03-05T04:36:04.023Z,23.24
2024-03-05T04:37:04.130Z,23.23
2024-03-05T04:38:04.088Z,23.23
2024-03-05T04:39:04.027Z,23.21
2024-03-05T04:40:04.057Z,23.18
2024-03-05T04:41:04.071Z,23.21
2024-03-05T04:42:04.047Z,23.17
2024-03-05T04:43:04.064Z,23.18
2024-03-05T04:44:04.074Z,23.20
2024-03-05T04:45:04.050Z,23.17
2024-03-05T04:46:04.064Z,23.20
2024-03-05T04:47:04.133Z,23.18
2024-03-05T04:48:04.125Z,23.20
2024-03-05T04:49:04.082Z,23.18
2024-03-05T04:50:04.121Z,23.18
2024-03-05T04:51:04.162Z,23.20
2024-03-05T04:52:04.098Z,23.20
2024-03-05T04:53:04.256Z,23.20
2024-03-05T04:54:11.626Z,23.14
2024-03-05T04:55:11.617Z,23.17
2024-03-05T04:56:11.685Z,23.18
2024-03-05T04:57:11.623Z,23.20
2024-03-05T04:58:11.620Z,23.18
2024-03-05T04:59:11.610Z,23.21
2024-03-05T05:00:11.605Z,23.20
2024-03-05T05:01:11.691Z,23.20
2024-03-05T05:02:11.709Z,23.20
2024-03-05T05:03:11.637Z,23.20
2024-03-05T05:04:11.614Z,23.20
2024-03-05T05:05:11.660Z,23.21
2024-03-05T05:06:11.622Z,23.20
2024-03-05T05:07:11.599Z,23.20
2024-03-05T05:08:11.633Z,23.18
2024-03-05T05:09:11.624Z,23.20
2024-03-05T05:10:11.645Z,23.18
2024-03-05T05:11:11.756Z,23.20
2024-03-05T05:12:11.623Z,23.18
2024-03-05T05:13:11.653Z,23.18
2024-03-05T05:14:11.649Z,23.20
2024-03-05T05:15:11.641Z,23.20
2024-03-05T05:16:11.636Z,23.18
2024-03-05T05:17:11.633Z,23.20
2024-03-05T05:18:11.683Z,23.18
2024-03-05T05:19:11.634Z,23.20
2024-03-05T05:20:11.730Z,23.17
2024-03-05T05:21:11.645Z,23.14
2024-03-05T05:22:11.644Z,23.17
2024-03-05T05:23:11.648Z,23.15
2024-03-05T05:24:11.654Z,23.15
2024-03-05T05:25:11.634Z,23.17
2024-03-05T05:26:11.636Z,23.15
2024-03-05T05:27:11.680Z,23.15
2024-03-05T05:28:11.670Z,23.14
2024-03-05T05:29:17.525Z,23.14
2024-03-05T05:30:14.313Z,23.15
2024-03-05T05:31:11.700Z,23.14
2024-03-05T05:32:11.647Z,23.14
2024-03-05T05:33:11.765Z,23.14
2024-03-05T05:34:11.676Z,23.15
2024-03-05T05:35:11.635Z,23.15
2024-03-05T05:36:11.660Z,23.13
2024-03-05T05:37:11.673Z,23.14
2024-03-05T05:38:11.762Z,23.15
2024-03-05T05:39:11.657Z,23.14
2024-03-05T05:40:11.725Z,23.15
2024-03-05T05:41:11.752Z,23.15
2024-03-05T05:42:11.672Z,23.15
2024-03-05T05:43:11.656Z,23.15
2024-03-05T05:44:11.689Z,23.15
2024-03-05T05:45:11.661Z,23.14
2024-03-05T05:46:11.705Z,23.13
2024-03-05T05:47:11.859Z,23.15
2024-03-05T05:48:11.803Z,23.15
2024-03-05T05:49:11.688Z,23.15
2024-03-05T05:50:11.694Z,23.15
2024-03-05T05:51:11.740Z,23.14
2024-03-05T05:52:11.669Z,23.15
2024-03-05T05:53:11.688Z,23.17
2024-03-05T05:54:11.790Z,23.18
2024-03-05T05:55:11.702Z,23.18
2024-03-05T05:56:11.653Z,23.17
2024-03-05T05:57:11.671Z,23.21
2024-03-05T05:58:11.690Z,23.20
2024-03-05T05:59:11.689Z,23.20
2024-03-05T06:00:11.700Z,23.23
2024-03-05T06:01:11.704Z,23.24
2024-03-05T06:02:11.766Z,23.24
2024-03-05T06:03:11.700Z,23.25
2024-03-05T06:04:11.715Z,23.25
2024-03-05T06:05:11.698Z,23.28
2024-03-05T06:06:11.711Z,23.30
2024-03-05T06:07:12.250Z,23.28
2024-03-05T06:08:12.289Z,23.31
2024-03-05T06:09:11.677Z,23.34
2024-03-05T06:10:11.725Z,23.31
2024-03-05T06:11:11.863Z,23.32
2024-03-05T06:12:11.708Z,23.34
2024-03-05T06:13:11.746Z,23.35
2024-03-05T06:14:11.693Z,23.37
2024-03-05T06:15:11.721Z,23.35
2024-03-05T06:16:11.727Z,23.35
2024-03-05T06:17:11.761Z,23.40
2024-03-05T06:18:11.783Z,23.40
2024-03-05T06:19:11.707Z,23.42
2024-03-05T06:20:11.805Z,23.41
2024-03-05T06:21:11.718Z,23.41
2024-03-05T06:22:13.960Z,23.45
2024-03-05T06:23:11.869Z,23.42
2024-03-05T06:24:11.741Z,23.45
2024-03-05T06:25:11.739Z,23.47
2024-03-05T06:26:11.755Z,23.45
2024-03-05T06:27:11.735Z,23.48
2024-03-05T06:28:11.720Z,23.47
2024-03-05T06:29:11.773Z,23.47
2024-03-05T06:30:11.750Z,23.51
2024-03-05T06:31:11.740Z,23.49
2024-03-05T06:32:11.781Z,23.51
2024-03-05T06:33:11.872Z,23.52
2024-03-05T06:34:11.914Z,23.54
2024-03-05T06:35:11.946Z,23.54
2024-03-05T06:36:12.020Z,23.57
2024-03-05T06:37:12.059Z,23.57
2024-03-05T06:38:12.130Z,23.59
2024-03-05T06:39:12.165Z,23.62
2024-03-05T06:40:12.257Z,23.68
2024-03-05T06:41:12.326Z,23.68
2024-03-05T06:42:12.314Z,23.72
2024-03-05T06:43:12.367Z,23.70
2024-03-05T06:44:12.387Z,23.78
2024-03-05T06:45:12.430Z,23.78
2024-03-05T06:46:12.453Z,23.83
2024-03-05T06:47:12.509Z,23.83
2024-03-05T06:48:17.365Z,23.87
2024-03-05T06:49:13.530Z,23.93
2024-03-05T06:50:12.566Z,23.96
2024-03-05T06:51:12.574Z,23.99
2024-03-05T06:52:12.560Z,24.03
2024-03-05T06:53:12.585Z,24.03
2024-03-05T06:54:12.629Z,24.09
2024-03-05T06:55:12.580Z,24.13
2024-03-05T06:56:13.267Z,24.16
2024-03-05T06:57:12.553Z,24.19
2024-03-05T06:58:12.569Z,24.20
2024-03-05T06:59:12.565Z,24.23
2024-03-05T07:00:12.565Z,24.27
2024-03-05T07:01:12.659Z,24.28
2024-03-05T07:02:12.573Z,24.32
2024-03-05T07:03:12.562Z,24.34
2024-03-05T07:04:12.561Z,24.35
2024-03-05T07:05:12.651Z,24.38
2024-03-05T07:06:12.574Z,24.41
2024-03-05T07:07:12.591Z,24.44
2024-03-05T07:08:12.547Z,24.44
2024-03-05T07:09:12.684Z,24.47
2024-03-05T07:10:12.601Z,24.50
2024-03-05T07:11:12.770Z,24.52
2024-03-05T07:12:12.611Z,24.54
2024-03-05T07:13:12.711Z,24.57
2024-03-05T07:14:12.872Z,24.57
2024-03-05T07:15:12.844Z,24.58
2024-03-05T07:16:12.849Z,24.61
2024-03-05T07:17:12.920Z,24.62
2024-03-05T07:18:13.033Z,24.65
2024-03-05T07:19:12.984Z,24.68
2024-03-05T07:20:13.063Z,24.64
2024-03-05T07:21:13.786Z,24.66
2024-03-05T07:22:13.139Z,24.64
2024-03-05T07:23:13.151Z,24.66
2024-03-05T07:24:13.193Z,24.68
2024-03-05T07:25:13.219Z,24.71
2024-03-05T07:26:13.319Z,24.71
2024-03-05T07:27:13.330Z,24.74
2024-03-05T07:28:13.402Z,24.76
2024-03-05T07:29:13.469Z,24.74
2024-03-05T07:30:13.443Z,24.75
2024-03-05T07:31:13.535Z,24.79
2024-03-05T07:32:13.611Z,24.79
2024-03-05T07:33:13.661Z,24.81
2024-03-05T07:34:13.701Z,24.81
2024-03-05T07:35:13.740Z,24.82
2024-03-05T07:36:13.858Z,24.83
2024-03-05T07:37:13.845Z,24.82
2024-03-05T07:38:13.900Z,24.85
2024-03-05T07:39:14.033Z,24.85
2024-03-05T07:40:15.948Z,24.87
2024-03-05T07:41:22.513Z,24.89
2024-03-05T07:42:15.076Z,24.89
2024-03-05T07:43:14.106Z,24.93
2024-03-05T07:44:14.064Z,24.93
2024-03-05T07:45:14.120Z,24.94
2024-03-05T07:46:14.117Z,24.94
2024-03-05T07:47:14.066Z,24.93
2024-03-05T07:48:14.145Z,24.89
2024-03-05T07:49:14.072Z,24.92
2024-03-05T07:50:14.081Z,24.92
2024-03-05T07:51:19.559Z,24.89
2024-03-05T07:52:15.152Z,24.87
2024-03-05T07:53:14.164Z,24.89
2024-03-05T07:54:14.672Z,24.87
2024-03-05T07:55:14.211Z,24.86
2024-03-05T07:56:14.218Z,24.89
2024-03-05T07:57:14.142Z,24.92
2024-03-05T07:58:14.393Z,24.94
2024-03-05T07:59:14.153Z,24.94
2024-03-05T08:00:14.153Z,24.90
2024-03-05T08:01:14.296Z,24.90
2024-03-05T08:02:14.309Z,24.90
2024-03-05T08:03:14.322Z,24.87
2024-03-05T08:04:14.407Z,24.90
2024-03-05T08:05:14.433Z,24.85
2024-03-05T08:06:14.565Z,24.86
2024-03-05T08:07:14.585Z,24.83
2024-03-05T08:08:14.647Z,24.81
2024-03-05T08:09:14.700Z,24.76
2024-03-05T08:10:14.796Z,24.75
2024-03-05T08:11:14.952Z,24.72
2024-03-05T08:12:14.900Z,24.68
2024-03-05T08:13:14.951Z,24.65
2024-03-05T08:14:15.007Z,24.62
2024-03-05T08:15:15.031Z,24.62
2024-03-05T08:16:15.045Z,24.64
2024-03-05T08:17:15.062Z,24.64
2024-03-05T08:18:15.203Z,24.64
2024-03-05T08:19:15.066Z,24.62
2024-03-05T08:20:15.143Z,24.66
2024-03-05T08:21:15.110Z,24.66
2024-03-05T08:22:15.092Z,24.66
2024-03-05T08:23:15.129Z,24.66
2024-03-05T08:24:15.141Z,24.65
2024-03-05T08:25:15.113Z,24.65
2024-03-05T08:26:15.225Z,24.66
2024-03-05T08:27:15.138Z,24.65
2024-03-05T08:28:15.139Z,24.64
2024-03-05T08:29:15.151Z,24.57
2024-03-05T08:30:15.169Z,24.59
2024-03-05T08:31:15.173Z,24.59
2024-03-05T08:32:15.181Z,24.59
2024-03-05T08:33:15.223Z,24.61
2024-03-05T08:34:15.192Z,24.62
2024-03-05T08:35:15.207Z,24.62
2024-03-05T08:36:15.184Z,24.66
2024-03-05T08:37:15.225Z,24.68
2024-03-05T08:38:15.262Z,24.69
2024-03-05T08:39:15.231Z,24.68
2024-03-05T08:40:15.296Z,24.72
2024-03-05T08:41:15.354Z,24.74
2024-03-05T08:42:15.342Z,24.78
2024-03-05T08:43:15.480Z,24.82
2024-03-05T08:44:17.043Z,24.79
2024-03-05T08:45:15.510Z,24.78
2024-03-05T08:46:15.572Z,24.81
2024-03-05T08:47:15.629Z,24.83
2024-03-05T08:48:15.841Z,24.83
2024-03-05T08:49:15.799Z,24.85
2024-03-05T08:50:15.849Z,24.86
2024-03-05T08:51:15.910Z,24.86
2024-03-05T08:52:15.957Z,24.90
2024-03-05T08:53:16.028Z,24.92
2024-03-05T08:54:17.868Z,24.93
2024-03-05T08:55:16.193Z,24.94
2024-03-05T08:56:16.247Z,24.94
2024-03-05T08:57:16.330Z,24.93
2024-03-05T08:58:16.378Z,24.94
2024-03-05T08:59:16.463Z,24.96
2024-03-05T09:00:27.144Z,24.97
2024-03-05T09:01:17.658Z,24.99
2024-03-05T09:02:16.613Z,25.00
2024-03-05T09:03:16.549Z,25.00
2024-03-05T09:04:16.557Z,25.02
2024-03-05T09:05:16.550Z,25.02
2024-03-05T09:06:16.575Z,25.02
2024-03-05T09:07:16.535Z,25.07
2024-03-05T09:08:16.613Z,25.06
2024-03-05T09:09:16.557Z,25.03
2024-03-05T09:10:16.669Z,25.06
2024-03-05T09:11:16.803Z,25.07
2024-03-05T09:12:16.770Z,25.07
2024-03-05T09:13:16.851Z,25.07
2024-03-05T09:14:16.883Z,25.12
2024-03-05T09:15:17.212Z,25.10
2024-03-05T09:16:17.100Z,25.13
2024-03-05T09:17:17.109Z,25.13
2024-03-05T09:18:17.192Z,25.16
2024-03-05T09:19:17.252Z,25.17
2024-03-05T09:20:17.402Z,25.19
2024-03-05T09:21:17.353Z,25.17
2024-03-05T09:22:17.546Z,25.20
2024-03-05T09:23:17.820Z,25.20
2024-03-05T09:24:17.498Z,25.23
2024-03-05T09:25:17.566Z,25.24
2024-03-05T09:26:17.599Z,25.24
2024-03-05T09:27:17.668Z,25.26
2024-03-05T09:28:17.766Z,25.26
2024-03-05T09:29:17.814Z,25.27
2024-03-05T09:30:17.816Z,25.29
2024-03-05T09:31:17.938Z,25.27
2024-03-05T09:32:17.920Z,25.29
2024-03-05T09:33:17.985Z,25.30
2024-03-05T09:34:18.082Z,25.29
2024-03-05T09:35:18.114Z,25.26
2024-03-05T09:36:18.106Z,25.26
2024-03-05T09:37:18.202Z,25.24
2024-03-05T09:38:18.275Z,25.23
2024-03-05T09:39:18.278Z,25.17
2024-03-05T09:40:19.562Z,25.12
2024-03-05T09:41:18.396Z,25.07
2024-03-05T09:42:18.408Z,25.10
2024-03-05T09:43:18.501Z,25.03
2024-03-05T09:44:18.553Z,25.05
2024-03-05T09:45:19.564Z,24.96
2024-03-05T09:46:18.741Z,24.93
2024-03-05T09:47:18.715Z,24.96
2024-03-05T09:48:18.793Z,24.93
2024-03-05T09:49:22.889Z,24.99
2024-03-05T09:50:19.916Z,25.03
2024-03-05T09:51:18.782Z,25.03
2024-03-05T09:52:18.786Z,25.06
2024-03-05T09:53:18.796Z,25.05
2024-03-05T09:54:18.790Z,25.07
2024-03-05T09:55:19.334Z,25.09
2024-03-05T09:56:18.815Z,25.07
2024-03-05T09:57:18.843Z,25.12
2024-03-05T09:58:18.854Z,25.07
2024-03-05T09:59:18.802Z,25.13
2024-03-05T10:00:19.986Z,25.16
2024-03-05T10:01:18.923Z,25.17
2024-03-05T10:02:18.840Z,25.16
2024-03-05T10:03:18.829Z,25.17
2024-03-05T10:04:18.931Z,25.23
2024-03-05T10:05:18.903Z,25.20
2024-03-05T10:06:18.861Z,25.23
2024-03-05T10:07:18.870Z,25.21
2024-03-05T10:08:18.875Z,25.20
2024-03-05T10:09:20.479Z,25.23
2024-03-05T10:10:18.912Z,25.23
2024-03-05T10:11:19.045Z,25.23
2024-03-05T10:12:18.901Z,25.26
2024-03-05T10:13:18.972Z,25.29
2024-03-05T10:14:18.867Z,25.27
2024-03-05T10:15:19.057Z,25.26
2024-03-05T10:16:19.143Z,25.27
2024-03-05T10:17:18.885Z,25.29
2024-03-05T10:18:18.961Z,25.29
2024-03-05T10:19:18.966Z,25.24
2024-03-05T10:20:18.885Z,25.30
2024-03-05T10:21:18.920Z,25.27
2024-03-05T10:22:18.909Z,25.29
2024-03-05T10:23:18.910Z,25.30
2024-03-05T10:24:18.915Z,25.31
2024-03-05T10:25:19.413Z,25.33
2024-03-05T10:26:18.914Z,25.36
2024-03-05T10:27:18.870Z,25.34
2024-03-05T10:28:18.984Z,25.37
2024-03-05T10:29:18.913Z,25.37
2024-03-05T10:30:18.885Z,25.36
2024-03-05T10:31:18.933Z,25.37
2024-03-05T10:32:18.890Z,25.38
2024-03-05T10:33:18.928Z,25.40
2024-03-05T10:34:18.972Z,25.40
2024-03-05T10:35:18.922Z,25.41
2024-03-05T10:36:18.917Z,25.41
2024-03-05T10:37:19.066Z,25.41
2024-03-05T10:38:18.942Z,25.44
2024-03-05T10:39:18.974Z,25.42
2024-03-05T10:40:19.000Z,25.45
2024-03-05T10:41:18.910Z,25.40
2024-03-05T10:42:18.939Z,25.37
2024-03-05T10:43:18.994Z,25.38
2024-03-05T10:44:18.949Z,25.38
2024-03-05T10:45:18.943Z,25.38
2024-03-05T10:46:18.938Z,25.38
2024-03-05T10:47:18.945Z,25.41
2024-03-05T10:48:18.965Z,25.44
2024-03-05T10:49:19.066Z,25.40
2024-03-05T10:50:18.920Z,25.38
2024-03-05T10:51:18.936Z,25.42
2024-03-05T10:52:19.147Z,25.38
2024-03-05T10:53:18.952Z,25.36
2024-03-05T10:54:19.086Z,25.36
2024-03-05T10:55:18.981Z,25.36
2024-03-05T10:56:19.045Z,25.34
2024-03-05T10:57:18.955Z,25.27
2024-03-05T10:58:19.070Z,25.26
2024-03-05T10:59:18.962Z,25.26
2024-03-05T11:00:18.946Z,25.23
2024-03-05T11:01:19.049Z,25.21
2024-03-05T11:02:18.998Z,25.20
2024-03-05T11:03:19.311Z,25.19
2024-03-05T11:04:19.006Z,25.19
2024-03-05T11:05:18.974Z,25.21
2024-03-05T11:06:18.980Z,25.21
2024-03-05T11:07:20.598Z,25.21
2024-03-05T11:08:19.677Z,25.21
2024-03-05T11:09:18.985Z,25.23
2024-03-05T11:10:18.999Z,25.24
2024-03-05T11:11:19.081Z,25.20
2024-03-05T11:12:18.951Z,25.20
2024-03-05T11:13:18.963Z,25.21
2024-03-05T11:14:19.018Z,25.23
2024-03-05T11:15:18.999Z,25.23
2024-03-05T11:16:18.982Z,25.23
2024-03-05T11:17:19.094Z,25.24
2024-03-05T11:18:18.982Z,25.24
2024-03-05T11:19:19.078Z,25.24
2024-03-05T11:20:19.001Z,25.27
2024-03-05T11:21:19.041Z,25.24
2024-03-05T11:22:19.004Z,25.29
2024-03-05T11:23:18.992Z,25.23
2024-03-05T11:24:18.980Z,25.24
2024-03-05T11:25:18.970Z,25.24
2024-03-05T11:26:18.985Z,25.23
2024-03-05T11:27:18.973Z,25.26
2024-03-05T11:28:19.009Z,25.26
2024-03-05T11:29:19.177Z,25.26
2024-03-05T11:30:18.958Z,25.24
2024-03-05T11:31:20.720Z,25.26
2024-03-05T11:32:18.983Z,25.29
2024-03-05T11:33:19.020Z,25.26
2024-03-05T11:34:19.203Z,25.27
2024-03-05T11:35:19.007Z,25.24
2024-03-05T11:36:19.005Z,25.29
2024-03-05T11:37:18.988Z,25.29
2024-03-05T11:38:19.010Z,25.27
2024-03-05T11:39:19.268Z,25.36
2024-03-05T11:40:19.048Z,25.34
2024-03-05T11:41:19.001Z,25.29
2024-03-05T11:42:19.014Z,25.37
2024-03-05T11:43:19.035Z,25.37
2024-03-05T11:44:18.984Z,25.34
2024-03-05T11:45:19.030Z,25.42
2024-03-05T11:46:19.024Z,25.45
2024-03-05T11:47:19.075Z,25.45
2024-03-05T11:48:19.029Z,25.48
2024-03-05T11:49:19.044Z,25.51
2024-03-05T11:50:19.045Z,25.48
2024-03-05T11:51:19.072Z,25.60
2024-03-05T11:52:19.025Z,25.61
2024-03-05T11:53:19.112Z,25.61
2024-03-05T11:54:21.793Z,25.65
2024-03-05T11:55:19.068Z,25.69
2024-03-05T11:56:19.168Z,25.69
2024-03-05T11:57:19.032Z,25.74
2024-03-05T11:58:19.077Z,25.75
2024-03-05T11:59:19.064Z,25.76
2024-03-05T12:00:19.097Z,25.79
2024-03-05T12:01:19.063Z,25.76
2024-03-05T12:02:19.301Z,25.83
2024-03-05T12:03:19.056Z,25.79
2024-03-05T12:04:19.169Z,25.85
2024-03-05T12:05:19.284Z,25.82
2024-03-05T12:06:19.274Z,25.85
2024-03-05T12:07:19.363Z,25.85
2024-03-05T12:08:19.430Z,25.85
2024-03-05T12:09:19.593Z,25.85
2024-03-05T12:10:19.654Z,25.88
2024-03-05T12:11:19.725Z,25.88
2024-03-05T12:12:19.723Z,25.89
2024-03-05T12:13:19.884Z,25.88
2024-03-05T12:14:19.836Z,25.86
2024-03-05T12:15:19.896Z,25.86
2024-03-05T12:16:20.040Z,25.85
2024-03-05T12:17:20.196Z,25.85
2024-03-05T12:18:20.078Z,25.83
2024-03-05T12:19:20.204Z,25.83
2024-03-05T12:20:20.245Z,25.88
2024-03-05T12:21:21.492Z,25.89
2024-03-05T12:22:20.427Z,25.91
2024-03-05T12:23:40.448Z,25.89
2024-03-05T12:24:21.503Z,25.91
2024-03-05T12:25:20.462Z,25.93
2024-03-05T12:26:20.478Z,25.97
2024-03-05T12:27:20.435Z,25.95
2024-03-05T12:28:20.484Z,25.92
2024-03-05T12:29:20.424Z,25.89
2024-03-05T12:30:22.879Z,25.86
2024-03-05T12:31:20.488Z,25.86
2024-03-05T12:32:20.485Z,25.82
2024-03-05T12:33:20.449Z,25.81
2024-03-05T12:34:20.491Z,25.78
2024-03-05T12:35:20.501Z,25.74
2024-03-05T12:36:20.430Z,25.75
2024-03-05T12:37:20.779Z,25.72
2024-03-05T12:38:20.478Z,25.69
2024-03-05T12:39:20.457Z,25.68
2024-03-05T12:40:20.448Z,25.61
2024-03-05T12:41:20.468Z,25.61
2024-03-05T12:42:20.440Z,25.65
2024-03-05T12:43:20.454Z,25.64
2024-03-05T12:44:20.426Z,25.66
2024-03-05T12:45:20.443Z,25.64
2024-03-05T12:46:20.655Z,25.69
2024-03-05T12:47:20.509Z,25.71
2024-03-05T12:48:20.583Z,25.72
2024-03-05T12:49:20.514Z,25.75
2024-03-05T12:50:20.497Z,25.71
2024-03-05T12:51:20.479Z,25.72
2024-03-05T12:52:20.623Z,25.71
2024-03-05T12:53:20.450Z,25.71